CYRJCYBG

Guest
Details From CYRJ - ROBERVAL
To CYBG - BAGOTVILLE
Flight Number -
Tags generated
Created
Modified
Stats Distance 52 nm / 96 km
Max Altitude 0 ft / 0 m
Waypoints 3
Social Downloads 0
Likes 0
Share VATSIM

Download

Looking for another format? Having issues loading an existing format? Contact us
Advertisement - Login to hide

Notes

Basic altitude profile: - Ascent Rate: 2500ft/min - Ascent Speed: 250kts - Cruise Altitude: 35000ft - Cruise Speed: 420kts - Descent Rate: 1500ft/min - Descent Speed: 250kts Options: - Use NATs: yes - Use PACOTS: yes - Use low airways: yes - Use high airways: yes

Route

CYRJ XBG CYBG

ID Type Via Altitude Latitude Longitude Leg Dist Tot Dist Heading (true) Name
O CYRJ APT - 0 ft / 0 m 48.52000˚ -72.26556˚ - 0 nm - ROBERVAL
XBG VOR - 0 ft / 0 m 48.32949˚ -70.99567˚ 51 nm 51 nm 102° / 103° -
O CYBG APT - 0 ft / 0 m 48.33118˚ -70.99417˚ 0 nm 52 nm 31° / 31° BAGOTVILLE

Altitude Profile

Advertisement - Login to hide

CYRJ

Details ICAO CYRJ (YRJ)
Name ROBERVAL
Region Canada
Timezone America/Montreal (UTC-4.0)
Stats Elevation 586 ft / 179 m (AMSL)
Location 48.520001° -72.265556°
Runways 1
Magnetic Variation 16.037° W

METAR

CYRJ 271600Z 11007KT 40SM FEW200 BKN220 16/02 A3010 RMK CC1CI5 SLP198 DENSITY ALT 600FT

Decode

TAF

TAF CYRJ 271338Z 2714/2802 10008KT P6SM SCT220 FM272000 20009KT P6SM BKN060 TEMPO 2720/2802 P6SM -SHRA BKN030 BECMG 2720/2722 18010G20KT RMK NXT FCST BY 272000Z

Decode

Departure Runways

ID Width Length Bearing (true) Bearing (mag) Surface Threshold Offset Overrun Length
16 150 ft / 46 m 5,096 ft / 1,553 m 142.69° 158.73° Asphalt 0 ft / 0 m 0 ft / 0 m
34 150 ft / 46 m 5,096 ft / 1,553 m 322.70° 338.74° Asphalt 0 ft / 0 m 0 ft / 0 m

CYBG

Details ICAO CYBG (YBG)
Name BAGOTVILLE
Region Canada
Timezone America/Montreal (UTC-4.0)
Stats Elevation 522 ft / 159 m (AMSL)
Location 48.331181° -70.994165°
Runways 2
Magnetic Variation 16.506° W

METAR

CYBG 271600Z 08013KT 25SM FEW240 19/02 A3013 RMK CI2 SLP205

Decode

TAF

TAF TAF CYBG 271130Z 2712/2812 10015KT P6SM FEW240 FM271800 11015KT P6SM BKN220 FM280000 11012KT P6SM OVC050 TEMPO 2800/2807 P6SM -SHRA FM280700 11012KT P6SM SCT020 OVC040 TEMPO 2807/2812 4SM -SHRA BR RMK NXT FCST BY 271800Z

Decode

Destination Runways

ID Width Length Bearing (true) Bearing (mag) Surface Threshold Offset Overrun Length
11 150 ft / 46 m 9,907 ft / 3,020 m 90.57° 107.08° Concrete 0 ft / 0 m 0 ft / 0 m
18 150 ft / 46 m 5,923 ft / 1,805 m 163.46° 179.97° Asphalt 0 ft / 0 m 0 ft / 0 m
29 150 ft / 46 m 9,907 ft / 3,020 m 270.60° 287.11° Concrete 0 ft / 0 m 0 ft / 0 m
36 150 ft / 46 m 5,923 ft / 1,805 m 343.46° 359.97° Asphalt 0 ft / 0 m 0 ft / 0 m

Approach Navaids

Runway Type Ident Frequency Range Bearing (true) Bearing (mag) Slope Elevation
29 Localiser IBG 111.50 MHz 25 nm / 46 km 270.98° 287.48° - 520 ft / 158 m (AMSL)
29 Glidescope IBG 111.50 MHz 25 nm / 46 km 290.00° 306.51° 3.00° 520 ft / 158 m (AMSL)